createdAt,value
2023-01-29T00:01:11.406Z,96110.81
2023-01-29T00:03:40.311Z,96106.56
2023-01-29T00:06:09.751Z,96107.78
2023-01-29T00:08:38.104Z,96102.75
2023-01-29T00:11:08.325Z,96089.09
2023-01-29T00:13:36.561Z,96098.69
2023-01-29T00:16:04.343Z,96103.28
2023-01-29T00:18:31.847Z,96099.06
2023-01-29T00:21:00.390Z,96106.03
2023-01-29T00:23:27.445Z,96102.22
2023-01-29T00:25:54.663Z,96103.84
2023-01-29T00:28:21.863Z,96095.00
2023-01-29T00:30:48.966Z,96101.00
2023-01-29T00:33:16.088Z,96101.53
2023-01-29T00:35:43.227Z,96093.69
2023-01-29T00:38:11.884Z,96098.44
2023-01-29T00:40:40.164Z,96104.53
2023-01-29T00:43:07.305Z,96095.03
2023-01-29T00:45:34.906Z,96092.28
2023-01-29T00:48:02.060Z,96090.34
2023-01-29T00:50:29.864Z,96095.16
2023-01-29T00:52:57.063Z,96103.44
2023-01-29T00:55:25.743Z,96102.91
2023-01-29T00:57:52.824Z,96092.84
2023-01-29T01:00:21.607Z,96104.13
2023-01-29T01:02:48.789Z,96101.13
2023-01-29T01:05:20.192Z,96106.31
2023-01-29T01:07:48.981Z,96110.41
2023-01-29T01:10:19.200Z,96106.03
2023-01-29T01:12:49.267Z,96111.63
2023-01-29T01:15:17.165Z,96114.34
2023-01-29T01:17:44.317Z,96109.59
2023-01-29T01:20:12.778Z,96111.06
2023-01-29T01:22:39.966Z,96116.22
2023-01-29T01:25:07.644Z,96116.91
2023-01-29T01:27:34.992Z,96116.66
2023-01-29T01:30:04.424Z,96121.66
2023-01-29T01:32:31.563Z,96127.72
2023-01-29T01:34:58.627Z,96127.00
2023-01-29T01:37:25.743Z,96132.31
2023-01-29T01:39:52.864Z,96130.81
2023-01-29T01:42:20.025Z,96131.09
2023-01-29T01:44:56.867Z,96127.56
2023-01-29T01:47:31.022Z,96135.72
2023-01-29T01:50:05.685Z,96145.94
2023-01-29T01:52:33.742Z,96144.03
2023-01-29T01:55:02.023Z,96150.69
2023-01-29T01:57:32.367Z,96144.59
2023-01-29T02:00:05.063Z,96149.63
2023-01-29T02:02:33.736Z,96146.75
2023-01-29T02:05:00.935Z,96149.19
2023-01-29T02:07:28.083Z,96153.00
2023-01-29T02:10:05.836Z,96148.91
2023-01-29T02:12:34.162Z,96161.72
2023-01-29T02:15:02.184Z,96167.84
2023-01-29T02:17:29.417Z,96177.09
2023-01-29T02:20:10.543Z,96170.28
2023-01-29T02:23:08.526Z,96168.50
2023-01-29T02:26:19.262Z,96179.84
2023-01-29T02:28:59.043Z,96191.94
2023-01-29T02:31:35.115Z,96186.38
2023-01-29T02:34:17.483Z,96201.34
2023-01-29T02:36:51.467Z,96205.69
2023-01-29T02:39:29.663Z,96212.63
2023-01-29T02:42:07.384Z,96203.38
2023-01-29T02:44:42.584Z,96211.00
2023-01-29T02:47:19.226Z,96209.19
2023-01-29T02:49:52.999Z,96204.50
2023-01-29T02:52:25.984Z,96208.09
2023-01-29T02:54:59.602Z,96203.56
2023-01-29T02:57:33.026Z,96212.84
2023-01-29T03:00:10.094Z,96220.72
2023-01-29T03:02:43.318Z,96210.47
2023-01-29T03:05:15.705Z,96205.81
2023-01-29T03:07:56.735Z,96198.03
2023-01-29T03:10:30.022Z,96214.53
2023-01-29T03:13:03.462Z,96213.63
2023-01-29T03:15:39.845Z,96213.34
2023-01-29T03:18:12.625Z,96212.84
2023-01-29T03:20:46.102Z,96209.19
2023-01-29T03:23:18.944Z,96211.44
2023-01-29T03:25:46.495Z,96203.22
2023-01-29T03:28:18.244Z,96202.56
2023-01-29T03:30:51.955Z,96209.22
2023-01-29T03:33:24.726Z,96209.22
2023-01-29T03:35:58.728Z,96208.88
2023-01-29T03:38:26.003Z,96208.19
2023-01-29T03:40:59.719Z,96210.94
2023-01-29T03:43:36.404Z,96203.53
2023-01-29T03:46:11.666Z,96211.47
2023-01-29T03:48:50.980Z,96206.06
2023-01-29T03:51:28.664Z,96210.56
2023-01-29T03:54:07.740Z,96206.13
2023-01-29T03:56:45.665Z,96205.47
2023-01-29T03:59:26.344Z,96210.78
2023-01-29T04:01:58.282Z,96202.91
2023-01-29T04:04:29.264Z,96198.50
2023-01-29T04:07:04.423Z,96201.50
2023-01-29T04:09:39.046Z,96204.78
2023-01-29T04:12:08.719Z,96200.94
2023-01-29T04:14:37.508Z,96201.75
2023-01-29T04:17:13.186Z,96197.41
2023-01-29T04:19:41.604Z,96199.34
2023-01-29T04:22:17.691Z,96202.22
2023-01-29T04:24:45.765Z,96213.34
2023-01-29T04:27:26.423Z,96206.69
2023-01-29T04:30:17.645Z,96208.06
2023-01-29T04:33:03.151Z,96210.31
2023-01-29T04:35:37.142Z,96210.50
2023-01-29T04:38:15.414Z,96202.91
2023-01-29T04:40:51.365Z,96201.19
2023-01-29T04:43:28.241Z,96199.66
2023-01-29T04:46:12.130Z,96204.94
2023-01-29T04:49:00.493Z,96201.59
2023-01-29T04:51:43.627Z,96206.09
2023-01-29T04:54:22.741Z,96201.28
2023-01-29T04:56:57.323Z,96201.44
2023-01-29T04:59:33.701Z,96204.31
2023-01-29T05:02:02.412Z,96205.94
2023-01-29T05:04:35.885Z,96200.19
2023-01-29T05:07:07.763Z,96198.59
2023-01-29T05:09:38.031Z,96201.72
2023-01-29T05:12:09.444Z,96200.88
2023-01-29T05:14:40.002Z,96206.59
2023-01-29T05:17:14.810Z,96207.53
2023-01-29T05:19:44.022Z,96213.91
2023-01-29T05:22:16.159Z,96208.84
2023-01-29T05:24:43.337Z,96211.84
2023-01-29T05:27:15.622Z,96222.59
2023-01-29T05:29:47.157Z,96222.47
2023-01-29T05:32:16.140Z,96221.66
2023-01-29T05:34:44.783Z,96230.94
2023-01-29T05:37:11.862Z,96232.13
2023-01-29T05:39:39.002Z,96232.16
2023-01-29T05:42:06.242Z,96236.00
2023-01-29T05:44:33.450Z,96245.50
2023-01-29T05:47:00.583Z,96247.47
2023-01-29T05:49:27.674Z,96259.06
2023-01-29T05:51:56.383Z,96272.19
2023-01-29T05:54:23.548Z,96270.13
2023-01-29T05:56:50.722Z,96272.06
2023-01-29T05:59:17.842Z,96278.31
2023-01-29T06:01:45.164Z,96276.97
2023-01-29T06:04:12.325Z,96288.81
2023-01-29T06:06:39.426Z,96294.00
2023-01-29T06:09:10.183Z,96285.00
2023-01-29T06:11:37.314Z,96291.66
2023-01-29T06:14:04.402Z,96295.75
2023-01-29T06:16:31.767Z,96294.69
2023-01-29T06:18:58.942Z,96305.72
2023-01-29T06:21:26.125Z,96306.00
2023-01-29T06:23:53.493Z,96316.13
2023-01-29T06:26:22.245Z,96307.66
2023-01-29T06:28:50.444Z,96314.75
2023-01-29T06:31:36.895Z,96320.88
2023-01-29T06:34:05.624Z,96328.50
2023-01-29T06:36:32.906Z,96332.72
2023-01-29T06:39:00.191Z,96332.19
2023-01-29T06:41:28.887Z,96338.88
2023-01-29T06:43:56.082Z,96344.75
2023-01-29T06:46:23.196Z,96346.75
2023-01-29T06:48:50.340Z,96349.34
2023-01-29T06:51:17.536Z,96354.56
2023-01-29T06:53:46.265Z,96359.22
2023-01-29T06:56:13.939Z,96356.72
2023-01-29T06:58:42.543Z,96356.28
2023-01-29T07:01:17.541Z,96349.91
2023-01-29T07:03:52.826Z,96347.09
2023-01-29T07:06:20.243Z,96356.16
2023-01-29T07:08:47.410Z,96359.56
2023-01-29T07:11:14.474Z,96366.81
2023-01-29T07:13:43.043Z,96371.59
2023-01-29T07:16:10.613Z,96373.13
2023-01-29T07:18:37.926Z,96371.16
2023-01-29T07:21:06.326Z,96369.41
2023-01-29T07:23:33.491Z,96370.59
2023-01-29T07:26:01.845Z,96368.06
2023-01-29T07:28:29.304Z,96361.78
2023-01-29T07:30:58.899Z,96363.28
2023-01-29T07:33:26.924Z,96371.09
2023-01-29T07:35:54.106Z,96361.94
2023-01-29T07:38:21.247Z,96362.22
2023-01-29T07:40:48.545Z,96357.03
2023-01-29T07:43:15.844Z,96357.31
2023-01-29T07:45:43.045Z,96349.25
2023-01-29T07:48:13.183Z,96347.22
2023-01-29T07:50:41.228Z,96346.53
2023-01-29T07:53:14.111Z,96349.69
2023-01-29T07:55:43.925Z,96347.50
2023-01-29T07:58:11.650Z,96346.25
2023-01-29T08:00:39.135Z,96350.47
2023-01-29T08:03:10.544Z,96354.84
2023-01-29T08:05:39.203Z,96345.31
2023-01-29T08:08:07.812Z,96349.16
2023-01-29T08:10:36.106Z,96342.59
2023-01-29T08:13:04.812Z,96345.44
2023-01-29T08:15:36.047Z,96349.78
2023-01-29T08:18:05.156Z,96359.22
2023-01-29T08:20:32.386Z,96354.84
2023-01-29T08:23:03.749Z,96357.97
2023-01-29T08:25:30.936Z,96352.38
2023-01-29T08:27:59.599Z,96369.59
2023-01-29T08:30:28.351Z,96362.88
2023-01-29T08:32:55.783Z,96358.75
2023-01-29T08:35:23.344Z,96355.63
2023-01-29T08:37:54.626Z,96349.06
2023-01-29T08:40:24.106Z,96349.97
2023-01-29T08:42:51.227Z,96357.09
2023-01-29T08:45:18.644Z,96358.38
2023-01-29T08:47:46.786Z,96348.75
2023-01-29T08:50:14.430Z,96351.28
2023-01-29T08:52:41.782Z,96361.78
2023-01-29T08:55:09.762Z,96361.31
2023-01-29T08:57:39.298Z,96368.78
2023-01-29T09:00:09.307Z,96381.03
2023-01-29T09:02:36.504Z,96373.16
2023-01-29T09:05:04.259Z,96361.41
2023-01-29T09:07:31.445Z,96368.69
2023-01-29T09:09:58.704Z,96376.72
2023-01-29T09:12:25.905Z,96365.53
2023-01-29T09:14:54.544Z,96372.00
2023-01-29T09:17:21.713Z,96379.16
2023-01-29T09:19:48.987Z,96374.31
2023-01-29T09:22:16.187Z,96383.47
2023-01-29T09:24:43.381Z,96372.56
2023-01-29T09:27:10.503Z,96383.97
2023-01-29T09:29:38.247Z,96387.38
2023-01-29T09:32:07.585Z,96391.00
2023-01-29T09:34:34.744Z,96395.16
2023-01-29T09:37:01.945Z,96397.06
2023-01-29T09:39:29.719Z,96391.41
2023-01-29T09:42:08.346Z,96396.63
2023-01-29T09:44:51.244Z,96396.00
2023-01-29T09:47:24.373Z,96400.56
2023-01-29T09:49:56.985Z,96407.69
2023-01-29T09:52:30.423Z,96412.63
2023-01-29T09:55:05.117Z,96417.78
2023-01-29T09:57:41.744Z,96420.94
2023-01-29T10:00:16.485Z,96417.06
2023-01-29T10:03:15.864Z,96424.66
2023-01-29T10:06:04.410Z,96435.63
2023-01-29T10:09:03.043Z,96441.63
2023-01-29T10:11:43.952Z,96447.25
2023-01-29T10:14:22.350Z,96455.19
2023-01-29T10:17:07.976Z,96450.56
2023-01-29T10:20:01.386Z,96445.94
2023-01-29T10:22:44.660Z,96449.38
2023-01-29T10:25:16.230Z,96443.19
2023-01-29T10:27:50.076Z,96449.78
2023-01-29T10:30:30.950Z,96453.34
2023-01-29T10:33:02.943Z,96450.22
2023-01-29T10:35:37.735Z,96450.16
2023-01-29T10:38:24.472Z,96444.97
2023-01-29T10:41:05.603Z,96442.38
2023-01-29T10:43:44.685Z,96451.84
2023-01-29T10:46:25.523Z,96446.53
2023-01-29T10:49:08.563Z,96447.44
2023-01-29T10:51:56.827Z,96448.44
2023-01-29T10:54:51.865Z,96444.75
2023-01-29T10:57:41.905Z,96442.25
2023-01-29T11:00:17.423Z,96443.47
2023-01-29T11:02:46.089Z,96443.31
2023-01-29T11:05:23.685Z,96445.47
2023-01-29T11:08:03.523Z,96446.63
2023-01-29T11:10:37.623Z,96441.13
2023-01-29T11:13:06.068Z,96440.34
2023-01-29T11:15:34.064Z,96441.59
2023-01-29T11:18:03.005Z,96431.97
2023-01-29T11:20:32.071Z,96445.69
2023-01-29T11:23:00.747Z,96439.38
2023-01-29T11:25:28.950Z,96437.41
2023-01-29T11:27:58.885Z,96441.47
2023-01-29T11:30:29.060Z,96438.44
2023-01-29T11:33:09.048Z,96440.34
2023-01-29T11:35:37.333Z,96434.16
2023-01-29T11:38:19.863Z,96430.91
2023-01-29T11:40:47.725Z,96430.91
2023-01-29T11:43:28.163Z,96432.00
2023-01-29T11:45:58.906Z,96422.84
2023-01-29T11:48:39.730Z,96421.59
2023-01-29T11:51:10.323Z,96419.22
2023-01-29T11:53:43.665Z,96410.84
2023-01-29T11:56:23.417Z,96410.72
2023-01-29T11:58:57.739Z,96407.31
2023-01-29T12:01:33.404Z,96411.44
2023-01-29T12:04:02.906Z,96407.72
2023-01-29T12:06:36.566Z,96411.56
2023-01-29T12:09:17.307Z,96403.22
2023-01-29T12:11:45.035Z,96405.22
2023-01-29T12:14:28.173Z,96399.75
2023-01-29T12:17:01.388Z,96394.56
2023-01-29T12:19:36.764Z,96397.91
2023-01-29T12:22:12.217Z,96394.94
2023-01-29T12:24:50.265Z,96392.72
2023-01-29T12:27:25.444Z,96388.97
2023-01-29T12:30:02.163Z,96397.00
2023-01-29T12:32:41.143Z,96385.88
2023-01-29T12:35:20.284Z,96391.38
2023-01-29T12:37:58.452Z,96379.03
2023-01-29T12:40:33.504Z,96375.44
2023-01-29T12:43:12.026Z,96368.91
2023-01-29T12:45:43.385Z,96379.84
2023-01-29T12:48:20.104Z,96370.22
2023-01-29T12:50:50.283Z,96369.19
2023-01-29T12:53:32.765Z,96363.09
2023-01-29T12:56:11.762Z,96369.28
2023-01-29T12:58:46.370Z,96357.25
2023-01-29T13:01:24.394Z,96355.03
2023-01-29T13:03:59.495Z,96356.13
2023-01-29T13:06:38.486Z,96356.56
2023-01-29T13:09:13.840Z,96351.75
2023-01-29T13:11:55.824Z,96360.00
2023-01-29T13:14:27.864Z,96350.13
2023-01-29T13:17:09.424Z,96351.91
2023-01-29T13:19:42.404Z,96352.13
2023-01-29T13:22:21.006Z,96355.44
2023-01-29T13:25:04.033Z,96358.31
2023-01-29T13:27:39.798Z,96353.91
2023-01-29T13:30:23.444Z,96360.50
2023-01-29T13:32:55.793Z,96361.78
2023-01-29T13:35:24.307Z,96356.50
2023-01-29T13:37:56.945Z,96358.22
2023-01-29T13:40:29.444Z,96360.97
2023-01-29T13:43:02.075Z,96361.41
2023-01-29T13:45:45.128Z,96357.69
2023-01-29T13:48:26.470Z,96358.28
2023-01-29T13:50:59.246Z,96358.91
2023-01-29T13:53:31.712Z,96352.72
2023-01-29T13:56:34.251Z,96362.81
2023-01-29T13:59:08.745Z,96352.88
2023-01-29T14:02:02.996Z,96347.91
2023-01-29T14:04:33.365Z,96351.16
2023-01-29T14:07:23.485Z,96353.31
2023-01-29T14:10:28.544Z,96352.50
2023-01-29T14:13:29.716Z,96357.72
2023-01-29T14:16:36.790Z,96356.72
2023-01-29T14:19:07.890Z,96363.50
2023-01-29T14:21:40.212Z,96359.56
2023-01-29T14:24:22.344Z,96359.16
2023-01-29T14:26:57.074Z,96364.44
2023-01-29T14:29:35.025Z,96369.47
2023-01-29T14:32:21.728Z,96362.06
2023-01-29T14:34:57.144Z,96372.53
2023-01-29T14:37:35.658Z,96366.38
2023-01-29T14:40:21.066Z,96367.03
2023-01-29T14:43:01.610Z,96372.47
2023-01-29T14:45:33.066Z,96373.94
2023-01-29T14:48:24.495Z,96368.75
2023-01-29T14:51:05.663Z,96364.44
2023-01-29T14:53:55.038Z,96370.91
2023-01-29T14:56:35.488Z,96370.06
2023-01-29T14:59:16.647Z,96368.03
2023-01-29T15:01:52.486Z,96371.41
2023-01-29T15:04:28.641Z,96370.63
2023-01-29T15:07:07.350Z,96367.88
2023-01-29T15:09:43.928Z,96369.06
2023-01-29T15:12:26.245Z,96368.03
2023-01-29T15:15:17.338Z,96365.34
2023-01-29T15:17:56.445Z,96366.03
2023-01-29T15:20:32.706Z,96358.06
2023-01-29T15:23:04.208Z,96363.03
2023-01-29T15:25:49.110Z,96356.66
2023-01-29T15:28:16.504Z,96359.81
2023-01-29T15:30:44.622Z,96353.81
2023-01-29T15:33:15.496Z,96351.28
2023-01-29T15:35:43.658Z,96350.03
2023-01-29T15:38:19.462Z,96349.69
2023-01-29T15:40:54.543Z,96356.97
2023-01-29T15:43:23.772Z,96350.63
2023-01-29T15:45:53.749Z,96354.13
2023-01-29T15:48:28.347Z,96347.25
2023-01-29T15:50:57.166Z,96343.16
2023-01-29T15:53:36.824Z,96352.34
2023-01-29T15:56:12.989Z,96342.84
2023-01-29T15:58:43.996Z,96347.28
2023-01-29T16:01:17.618Z,96361.50
2023-01-29T16:03:51.229Z,96356.56
2023-01-29T16:06:22.647Z,96358.25
2023-01-29T16:08:55.235Z,96361.97
2023-01-29T16:11:23.185Z,96361.31
2023-01-29T16:13:56.745Z,96357.78
2023-01-29T16:16:26.555Z,96360.63
2023-01-29T16:19:00.484Z,96366.16
2023-01-29T16:21:39.105Z,96367.78
2023-01-29T16:24:11.624Z,96361.91
2023-01-29T16:26:46.279Z,96363.84
2023-01-29T16:29:23.004Z,96363.50
2023-01-29T16:31:56.243Z,96365.53
2023-01-29T16:34:30.934Z,96359.25
2023-01-29T16:37:02.209Z,96366.09
2023-01-29T16:39:37.365Z,96362.16
2023-01-29T16:42:27.746Z,96364.22
2023-01-29T16:45:02.025Z,96379.81
2023-01-29T16:48:05.903Z,96385.44
2023-01-29T16:50:53.893Z,96374.34
2023-01-29T16:53:23.823Z,96378.19
2023-01-29T16:55:57.324Z,96382.97
2023-01-29T16:58:29.644Z,96378.09
2023-01-29T17:01:02.729Z,96381.25
2023-01-29T17:03:37.842Z,96387.94
2023-01-29T17:06:13.206Z,96384.00
2023-01-29T17:08:44.823Z,96378.28
2023-01-29T17:11:30.160Z,96379.50
2023-01-29T17:13:59.384Z,96377.19
2023-01-29T17:16:33.798Z,96388.22
2023-01-29T17:19:13.563Z,96380.19
2023-01-29T17:21:45.409Z,96384.03
2023-01-29T17:24:14.484Z,96389.75
2023-01-29T17:26:49.660Z,96383.91
2023-01-29T17:29:25.303Z,96390.03
2023-01-29T17:31:52.523Z,96401.38
2023-01-29T17:34:19.684Z,96403.56
2023-01-29T17:36:46.907Z,96400.56
2023-01-29T17:39:20.851Z,96405.19
2023-01-29T17:42:03.208Z,96406.69
2023-01-29T17:44:30.424Z,96406.97
2023-01-29T17:46:57.625Z,96404.78
2023-01-29T17:49:29.846Z,96408.19
2023-01-29T17:51:59.087Z,96402.34
2023-01-29T17:54:27.670Z,96407.75
2023-01-29T17:57:00.706Z,96406.53
2023-01-29T17:59:34.383Z,96406.00
2023-01-29T18:02:02.004Z,96406.41
2023-01-29T18:04:29.288Z,96416.22
2023-01-29T18:06:58.864Z,96419.78
2023-01-29T18:09:29.049Z,96410.09
2023-01-29T18:11:58.408Z,96407.94
2023-01-29T18:14:25.625Z,96404.78
2023-01-29T18:16:52.865Z,96414.59
2023-01-29T18:19:22.692Z,96417.31
2023-01-29T18:21:50.558Z,96414.31
2023-01-29T18:24:18.645Z,96410.78
2023-01-29T18:26:45.920Z,96408.44
2023-01-29T18:29:14.685Z,96401.50
2023-01-29T18:31:42.098Z,96406.69
2023-01-29T18:34:09.326Z,96405.16
2023-01-29T18:36:36.466Z,96409.13
2023-01-29T18:39:03.823Z,96410.63
2023-01-29T18:41:30.966Z,96404.09
2023-01-29T18:43:58.144Z,96403.25
2023-01-29T18:46:26.764Z,96401.66
2023-01-29T18:48:53.934Z,96399.44
2023-01-29T18:51:21.104Z,96407.50
2023-01-29T18:53:50.271Z,96402.72
2023-01-29T18:56:18.236Z,96394.81
2023-01-29T18:58:45.524Z,96391.69
2023-01-29T19:01:19.772Z,96398.09
2023-01-29T19:03:48.724Z,96393.88
2023-01-29T19:06:15.962Z,96394.13
2023-01-29T19:08:43.264Z,96391.69
2023-01-29T19:11:11.519Z,96392.50
2023-01-29T19:13:38.736Z,96395.22
2023-01-29T19:16:08.167Z,96398.63
2023-01-29T19:18:35.410Z,96398.34
2023-01-29T19:21:09.727Z,96401.88
2023-01-29T19:23:37.395Z,96397.94
2023-01-29T19:26:05.125Z,96401.59
2023-01-29T19:28:33.307Z,96402.97
2023-01-29T19:31:01.479Z,96395.72
2023-01-29T19:33:29.349Z,96401.19
2023-01-29T19:35:56.995Z,96405.69
2023-01-29T19:38:26.590Z,96408.66
2023-01-29T19:40:53.824Z,96413.16
2023-01-29T19:43:21.613Z,96408.28
2023-01-29T19:45:50.307Z,96414.94
2023-01-29T19:48:18.095Z,96419.56
2023-01-29T19:50:51.390Z,96424.03
2023-01-29T19:53:18.510Z,96419.63
2023-01-29T19:55:47.167Z,96419.50
2023-01-29T19:58:14.691Z,96417.34
2023-01-29T20:00:41.868Z,96414.56
2023-01-29T20:03:09.029Z,96421.81
2023-01-29T20:05:36.687Z,96422.41
2023-01-29T20:08:04.260Z,96426.06
2023-01-29T20:10:31.570Z,96432.91
2023-01-29T20:13:00.367Z,96436.53
2023-01-29T20:15:27.584Z,96447.50
2023-01-29T20:17:54.686Z,96443.78
2023-01-29T20:20:21.910Z,96447.91
2023-01-29T20:22:51.498Z,96446.09
2023-01-29T20:25:19.985Z,96445.41
2023-01-29T20:27:47.525Z,96447.97
2023-01-29T20:30:16.958Z,96454.50
2023-01-29T20:32:44.286Z,96448.88
2023-01-29T20:35:11.507Z,96452.66
2023-01-29T20:37:38.708Z,96456.59
2023-01-29T20:40:07.284Z,96464.06
2023-01-29T20:42:34.471Z,96465.41
2023-01-29T20:45:01.808Z,96462.25
2023-01-29T20:47:30.406Z,96464.03
2023-01-29T20:49:58.165Z,96463.47
2023-01-29T20:52:25.486Z,96464.78
2023-01-29T20:54:52.807Z,96464.22
2023-01-29T20:57:22.049Z,96472.94
2023-01-29T20:59:49.368Z,96474.84
2023-01-29T21:02:16.729Z,96474.41
2023-01-29T21:04:45.324Z,96476.06
2023-01-29T21:07:12.745Z,96478.88
2023-01-29T21:09:40.141Z,96479.38
2023-01-29T21:12:07.545Z,96484.00
2023-01-29T21:14:34.931Z,96475.69
2023-01-29T21:17:02.608Z,96479.09
2023-01-29T21:19:29.745Z,96483.56
2023-01-29T21:21:58.585Z,96484.13
2023-01-29T21:24:27.336Z,96476.84
2023-01-29T21:26:54.746Z,96477.63
2023-01-29T21:29:22.575Z,96476.25
2023-01-29T21:31:50.202Z,96473.56
2023-01-29T21:34:18.325Z,96486.06
2023-01-29T21:36:45.984Z,96484.19
2023-01-29T21:39:14.744Z,96473.84
2023-01-29T21:41:44.265Z,96483.50
2023-01-29T21:44:11.712Z,96479.53
2023-01-29T21:46:39.480Z,96476.13
2023-01-29T21:49:07.474Z,96470.09
2023-01-29T21:51:35.626Z,96470.81
2023-01-29T21:54:02.743Z,96469.84
2023-01-29T21:56:31.369Z,96469.84
2023-01-29T21:58:58.543Z,96470.56
2023-01-29T22:01:37.831Z,96465.53
2023-01-29T22:04:05.944Z,96467.47
2023-01-29T22:06:33.204Z,96462.94
2023-01-29T22:09:00.383Z,96466.44
2023-01-29T22:11:27.803Z,96470.81
2023-01-29T22:13:56.966Z,96462.47
2023-01-29T22:16:24.186Z,96457.72
2023-01-29T22:18:51.402Z,96461.78
2023-01-29T22:21:18.647Z,96455.56
2023-01-29T22:23:49.001Z,96456.88
2023-01-29T22:26:16.856Z,96457.25
2023-01-29T22:28:46.265Z,96455.16
2023-01-29T22:31:14.993Z,96456.63
2023-01-29T22:33:44.502Z,96450.66
2023-01-29T22:36:11.711Z,96452.31
2023-01-29T22:38:38.964Z,96440.31
2023-01-29T22:41:06.203Z,96444.69
2023-01-29T22:43:33.395Z,96438.22
2023-01-29T22:46:00.620Z,96432.81
2023-01-29T22:48:29.286Z,96432.19
2023-01-29T22:50:57.839Z,96422.22
2023-01-29T22:53:25.105Z,96418.75
2023-01-29T22:55:55.521Z,96413.09
2023-01-29T22:58:22.732Z,96409.72
2023-01-29T23:00:50.784Z,96406.06
2023-01-29T23:03:18.127Z,96402.75
2023-01-29T23:05:46.728Z,96400.22
2023-01-29T23:08:13.870Z,96402.56
2023-01-29T23:10:41.474Z,96391.81
2023-01-29T23:13:08.683Z,96383.53
2023-01-29T23:15:35.826Z,96385.44
2023-01-29T23:18:04.062Z,96384.34
2023-01-29T23:20:31.344Z,96381.91
2023-01-29T23:23:00.145Z,96375.94
2023-01-29T23:25:27.508Z,96380.56
2023-01-29T23:27:54.623Z,96377.59
2023-01-29T23:30:21.735Z,96370.66
2023-01-29T23:32:49.099Z,96371.59
2023-01-29T23:35:16.343Z,96371.59
2023-01-29T23:37:43.581Z,96362.38
2023-01-29T23:40:13.302Z,96368.66
2023-01-29T23:42:40.462Z,96369.72
2023-01-29T23:45:08.622Z,96358.84
2023-01-29T23:47:35.725Z,96360.38
2023-01-29T23:50:02.902Z,96359.03
2023-01-29T23:52:30.385Z,96348.28
2023-01-29T23:54:58.165Z,96357.97
2023-01-29T23:57:26.783Z,96352.66
2023-01-29T23:59:53.943Z,96353.22
